Time;durP1;ratioP1;P1;durP2;ratioP2;P2;SDS_P1;SDS_P2;PMS_P1;PMS_P2;Temp;Humidity;BMP_temperature;BMP_pressure;BME280_temperature;BME280_humidity;BME280_pressure;Samples;Min_cycle;Max_cycle;Signal;HPM_P1;HPM_P2
2022/03/19 00:01:42;;;;;;;;;9.50;8.50;;;;;11.99;37.87;103048.63;5060320;28;45453;-64
2022/03/19 00:04:07;;;;;;;;;9.75;9.25;;;;;11.97;38.16;103046.84;5060477;28;45307;-64
2022/03/19 00:06:38;;;;;;;;;8.75;8.75;;;;;11.93;38.04;103037.97;5060212;28;45460;-65
2022/03/19 00:09:06;;;;;;;;;9.50;8.00;;;;;11.93;37.92;103039.72;5059616;28;48376;-65
2022/03/19 00:11:31;;;;;;;;;8.00;8.00;;;;;11.90;37.99;103031.75;5062444;28;45322;-63
2022/03/19 00:13:57;;;;;;;;;10.50;7.50;;;;;11.88;38.01;103031.72;5061032;28;45434;-63
2022/03/19 00:16:22;;;;;;;;;7.50;7.00;;;;;11.86;37.99;103041.34;5061865;28;45373;-63
2022/03/19 00:18:48;;;;;;;;;9.00;7.50;;;;;11.83;38.11;103031.66;5060810;28;45370;-63
2022/03/19 00:21:14;;;;;;;;;10.50;7.00;;;;;11.79;38.16;103031.59;5062249;28;45250;-63
2022/03/19 00:23:39;;;;;;;;;5.25;4.75;;;;;11.79;37.80;103039.50;5066597;28;45338;-63
2022/03/19 00:26:06;;;;;;;;;7.50;6.75;;;;;11.77;38.01;103042.06;5059253;28;46249;-65
2022/03/19 00:28:35;;;;;;;;;6.50;5.50;;;;;11.76;38.04;103036.78;5059524;28;47065;-66
2022/03/19 00:31:00;;;;;;;;;6.50;6.00;;;;;11.71;38.00;103034.97;5059579;28;45299;-67
2022/03/19 00:33:26;;;;;;;;;6.75;6.75;;;;;11.70;38.00;103035.81;5057847;28;45237;-67
2022/03/19 00:35:51;;;;;;;;;8.25;5.00;;;;;11.70;38.03;103035.81;5059380;28;45513;-66
2022/03/19 00:38:17;;;;;;;;;9.50;7.25;;;;;11.69;38.09;103034.03;5059311;28;45339;-67
2022/03/19 00:40:43;;;;;;;;;6.50;6.50;;;;;11.68;38.11;103034.94;5059259;28;45394;-66
2022/03/19 00:43:09;;;;;;;;;5.75;5.50;;;;;11.66;38.21;103034.00;5058081;28;45342;-65
2022/03/19 00:45:35;;;;;;;;;7.00;6.25;;;;;11.66;38.08;103035.72;5059285;28;45394;-67
2022/03/19 00:48:00;;;;;;;;;8.00;6.00;;;;;11.64;38.15;103030.44;5041079;28;45349;-66
2022/03/19 00:50:26;;;;;;;;;8.00;6.25;;;;;11.64;38.10;103043.59;5058979;28;45328;-65
2022/03/19 00:52:51;;;;;;;;;8.00;7.75;;;;;11.62;38.21;103028.63;5059203;28;45229;-65
2022/03/19 00:55:17;;;;;;;;;10.00;7.75;;;;;11.59;38.12;103028.59;5057889;28;45462;-64
2022/03/19 00:57:45;;;;;;;;;6.25;6.25;;;;;11.58;38.17;103026.81;5059113;28;45263;-64
2022/03/19 01:00:14;;;;;;;;;7.75;7.75;;;;;11.56;38.20;103021.53;5059084;28;46527;-63
2022/03/19 01:02:43;;;;;;;;;6.00;6.00;;;;;11.53;38.18;103021.47;5058104;28;45328;-64
2022/03/19 01:05:10;;;;;;;;;9.25;7.75;;;;;11.52;38.15;103024.94;5062317;28;45431;-64
2022/03/19 01:07:41;;;;;;;;;6.25;6.25;;;;;11.49;38.35;103019.63;5060805;28;45493;-64
2022/03/19 01:10:07;;;;;;;;;6.25;6.25;;;;;11.47;38.22;103018.72;5061996;28;45873;-65
2022/03/19 01:12:33;;;;;;;;;5.50;5.25;;;;;11.45;38.22;103023.97;5060929;28;45352;-64
2022/03/19 01:14:58;;;;;;;;;6.00;6.00;;;;;11.42;38.28;103010.75;5061019;28;45537;-63
2022/03/19 01:17:24;;;;;;;;;11.50;7.00;;;;;11.40;38.17;103016.84;5060700;28;45558;-63
2022/03/19 01:19:58;;;;;;;;;7.75;6.50;;;;;11.37;38.33;103008.03;5061924;28;45246;-63
2022/03/19 01:22:24;;;;;;;;;8.25;6.00;;;;;11.33;38.37;103006.19;5065500;28;45372;-63
2022/03/19 01:24:50;;;;;;;;;7.00;5.50;;;;;11.32;38.23;103008.78;5062086;28;45399;-64
2022/03/19 01:27:16;;;;;;;;;8.50;6.50;;;;;11.30;38.25;103013.16;5061815;28;45271;-64
2022/03/19 01:29:42;;;;;;;;;6.00;6.00;;;;;11.28;38.41;103004.31;5062027;28;45375;-64
2022/03/19 01:32:08;;;;;;;;;5.75;5.75;;;;;11.23;38.44;103004.22;5061887;28;45316;-64
2022/03/19 01:34:33;;;;;;;;;7.50;6.00;;;;;11.23;38.27;103006.84;5061823;28;45322;-65
2022/03/19 01:36:58;;;;;;;;;7.00;5.00;;;;;11.19;38.14;102999.78;5060390;28;47083;-64
2022/03/19 01:39:24;;;;;;;;;6.50;5.00;;;;;11.17;38.32;103004.09;5060649;28;45284;-63
2022/03/19 01:41:49;;;;;;;;;7.25;7.00;;;;;11.15;38.44;103000.59;5062003;28;45335;-64
2022/03/19 01:44:19;;;;;;;;;8.00;6.50;;;;;11.13;38.36;103002.28;5060482;28;45400;-64
2022/03/19 01:46:59;;;;;;;;;7.50;5.25;;;;;11.10;38.36;103004.88;5061568;28;46102;-64
2022/03/19 01:49:25;;;;;;;;;5.00;5.00;;;;;11.06;38.48;102993.38;5061445;28;45332;-64
2022/03/19 01:51:52;;;;;;;;;4.50;3.50;;;;;11.03;38.56;102999.47;5060694;28;45431;-64
2022/03/19 01:54:22;;;;;;;;;7.50;6.00;;;;;11.02;38.30;102995.06;5061121;28;45454;-64
2022/03/19 01:56:49;;;;;;;;;5.75;3.00;;;;;10.99;38.40;103002.00;5059529;28;45434;-65
2022/03/19 01:59:16;;;;;;;;;4.25;3.00;;;;;10.95;38.35;102987.91;5061035;28;45717;-63
2022/03/19 02:01:43;;;;;;;;;4.50;4.50;;;;;10.94;38.52;102994.00;5061686;28;45250;-65
2022/03/19 02:04:09;;;;;;;;;7.00;6.00;;;;;10.92;38.61;102984.31;5061416;28;45277;-64
2022/03/19 02:06:36;;;;;;;;;8.25;6.75;;;;;10.89;38.51;102988.69;5061459;28;45338;-65
2022/03/19 02:09:03;;;;;;;;;5.25;4.75;;;;;10.86;38.65;102987.72;5061014;28;45366;-64
2022/03/19 02:11:28;;;;;;;;;4.50;4.50;;;;;10.75;38.50;102969.09;5061436;28;45311;-65
2022/03/19 02:13:54;;;;;;;;;6.25;5.25;;;;;10.81;38.41;102984.13;5060913;28;45280;-66
2022/03/19 02:16:20;;;;;;;;;7.00;5.00;;;;;10.80;38.68;102979.72;5059429;28;46120;-64
2022/03/19 02:18:45;;;;;;;;;7.25;6.00;;;;;10.77;38.53;102987.53;5061033;28;45455;-64
2022/03/19 02:21:11;;;;;;;;;5.00;4.75;;;;;10.77;38.59;102984.88;5061539;28;45441;-64
2022/03/19 02:26:20;;;;;;;;;6.50;4.00;;;;;10.70;38.57;102970.72;5050126;28;45317;-64
2022/03/19 02:28:45;;;;;;;;;6.75;6.00;;;;;10.68;38.49;102973.34;5059804;28;45392;-64
2022/03/19 02:31:10;;;;;;;;;6.00;4.75;;;;;10.64;38.77;102966.25;5061413;28;45382;-64
2022/03/19 02:33:36;;;;;;;;;5.00;5.00;;;;;10.64;38.50;102963.63;5060774;28;45552;-64
2022/03/19 02:36:01;;;;;;;;;4.00;4.00;;;;;10.61;38.49;102963.53;5061144;28;45483;-64
2022/03/19 02:38:27;;;;;;;;;6.25;5.50;;;;;10.57;38.57;102957.31;5060989;28;45186;-64
2022/03/19 02:40:52;;;;;;;;;7.50;4.25;;;;;10.56;38.49;102962.56;5061160;28;45267;-64
2022/03/19 02:43:17;;;;;;;;;6.25;6.00;;;;;10.53;38.64;102954.63;5060849;28;45300;-64
2022/03/19 02:45:46;;;;;;;;;6.75;6.00;;;;;10.50;38.84;102954.53;5061083;28;46400;-64
2022/03/19 02:48:12;;;;;;;;;6.50;5.50;;;;;10.48;38.83;102951.00;5060684;28;45293;-65
2022/03/19 02:50:37;;;;;;;;;7.00;5.75;;;;;10.42;38.74;102930.72;5059334;28;45391;-65
2022/03/19 02:53:08;;;;;;;;;8.00;5.75;;;;;10.43;38.68;102929.88;5042502;28;45401;-65
2022/03/19 02:55:36;;;;;;;;;5.50;5.50;;;;;10.35;38.82;102913.00;5059340;28;46051;-64
2022/03/19 02:58:03;;;;;;;;;6.75;5.25;;;;;10.36;38.70;102917.44;5060565;28;45310;-64
2022/03/19 03:00:29;;;;;;;;;5.00;5.00;;;;;10.33;38.94;102925.25;5060610;28;45291;-64
2022/03/19 03:02:55;;;;;;;;;9.50;6.75;;;;;10.30;38.91;102923.44;5060340;28;45355;-65
2022/03/19 03:05:20;;;;;;;;;8.50;7.00;;;;;10.28;39.00;102925.13;5060253;28;46658;-66
2022/03/19 03:07:45;;;;;;;;;6.00;5.00;;;;;10.22;38.90;102925.00;5060438;28;45307;-65
2022/03/19 03:10:15;;;;;;;;;7.25;5.00;;;;;10.23;38.77;102930.28;5059032;28;45504;-64
2022/03/19 03:12:40;;;;;;;;;4.75;4.75;;;;;10.19;38.81;102925.81;5060519;28;45241;-67
2022/03/19 03:15:07;;;;;;;;;7.00;5.75;;;;;10.19;38.95;102927.56;5060089;28;46077;-65
2022/03/19 03:17:34;;;;;;;;;9.00;7.25;;;;;10.17;38.88;102930.13;5060060;28;45273;-65
2022/03/19 03:19:59;;;;;;;;;5.25;4.00;;;;;10.15;38.79;102930.97;5060197;28;45314;-65
2022/03/19 03:22:25;;;;;;;;;9.00;7.75;;;;;10.14;39.05;102939.69;5063763;28;45339;-65
2022/03/19 03:24:50;;;;;;;;;8.50;7.25;;;;;10.13;38.98;102937.94;5060127;28;45309;-65
2022/03/19 03:27:16;;;;;;;;;7.50;5.00;;;;;10.07;39.12;102929.06;5060093;28;45319;-65
2022/03/19 03:29:41;;;;;;;;;7.25;7.25;;;;;10.08;39.10;102928.19;5060427;28;45477;-65
2022/03/19 03:32:09;;;;;;;;;10.50;7.75;;;;;10.04;39.04;102922.84;5060130;28;45411;-65
2022/03/19 03:34:35;;;;;;;;;11.75;8.25;;;;;10.06;39.21;102927.28;5059898;28;45380;-65
2022/03/19 03:37:00;;;;;;;;;10.25;7.00;;;;;10.03;38.98;102918.44;5060038;28;45301;-65
2022/03/19 03:39:26;;;;;;;;;11.00;10.50;;;;;10.01;39.13;102923.66;5060266;28;45212;-65
2022/03/19 03:41:51;;;;;;;;;8.00;6.25;;;;;10.01;39.22;102921.03;5060096;28;45538;-65
2022/03/19 03:44:16;;;;;;;;;10.00;8.25;;;;;9.98;39.29;102915.72;5059928;28;46276;-65
2022/03/19 03:46:41;;;;;;;;;8.50;7.00;;;;;9.97;39.25;102907.78;5059906;28;45319;-65
2022/03/19 03:49:08;;;;;;;;;13.75;8.75;;;;;9.95;39.10;102909.50;5059905;28;45369;-65
2022/03/19 03:51:33;;;;;;;;;13.50;10.75;;;;;9.91;39.23;102905.91;5058571;28;45544;-65
2022/03/19 03:53:59;;;;;;;;;14.00;10.75;;;;;9.93;39.22;102912.97;5059786;28;45410;-65
2022/03/19 03:56:24;;;;;;;;;13.50;11.00;;;;;9.91;39.21;102917.31;5058409;28;45341;-65
2022/03/19 03:58:50;;;;;;;;;15.25;12.50;;;;;9.91;39.16;102919.03;5059987;28;45391;-65
2022/03/19 04:01:16;;;;;;;;;13.75;12.75;;;;;9.89;39.12;102923.38;5059805;28;45459;-65
2022/03/19 04:03:42;;;;;;;;;11.75;8.00;;;;;9.88;39.42;102916.34;5059537;28;45300;-65
2022/03/19 04:06:07;;;;;;;;;13.50;9.50;;;;;9.87;39.34;102911.94;5059666;28;45253;-65
2022/03/19 04:08:32;;;;;;;;;16.25;11.25;;;;;9.86;39.44;102918.03;5059747;28;45245;-65
2022/03/19 04:10:58;;;;;;;;;16.00;13.00;;;;;9.84;39.51;102915.38;5059553;28;45379;-65
2022/03/19 04:13:23;;;;;;;;;13.00;12.25;;;;;9.82;39.34;102913.56;5059754;28;45389;-65
2022/03/19 04:15:50;;;;;;;;;14.50;10.50;;;;;9.80;39.59;102912.63;5058163;28;45318;-65
2022/03/19 04:18:15;;;;;;;;;12.00;12.00;;;;;9.79;39.36;102917.03;5058489;28;45303;-66
2022/03/19 04:20:41;;;;;;;;;13.25;11.75;;;;;9.73;39.26;102904.63;5059426;28;45446;-65
2022/03/19 04:23:06;;;;;;;;;15.50;12.75;;;;;9.75;39.29;102916.06;5062406;28;45238;-65
2022/03/19 04:25:31;;;;;;;;;13.00;12.00;;;;;9.70;39.65;102912.44;5059197;28;45374;-65
2022/03/19 04:27:57;;;;;;;;;9.50;9.50;;;;;9.71;39.52;102913.31;5059914;28;45301;-65
2022/03/19 04:30:25;;;;;;;;;17.25;14.50;;;;;9.69;39.55;102905.41;5059344;28;45436;-65
2022/03/19 04:32:57;;;;;;;;;12.50;11.25;;;;;9.66;39.53;102907.97;5059496;28;45434;-66
2022/03/19 04:38:18;;;;;;;;;13.75;9.25;;;;;9.62;39.91;102908.72;5060644;28;45319;-66
2022/03/19 04:40:45;;;;;;;;;16.00;12.25;;;;;9.60;39.75;102902.56;5062738;28;45358;-66
2022/03/19 04:43:11;;;;;;;;;19.00;14.00;;;;;9.59;39.72;102906.03;5062618;28;46102;-66
2022/03/19 04:45:39;;;;;;;;;17.00;14.25;;;;;9.56;39.71;102903.34;5062948;28;45176;-66
2022/03/19 04:48:05;;;;;;;;;17.50;13.25;;;;;9.55;39.57;102909.44;5062865;28;45232;-67
2022/03/19 04:50:31;;;;;;;;;16.25;15.25;;;;;9.44;40.01;102896.91;5062491;28;45524;-65
2022/03/19 04:52:58;;;;;;;;;13.75;11.25;;;;;9.51;39.67;102905.84;5062392;28;45500;-66
2022/03/19 04:55:24;;;;;;;;;12.75;12.75;;;;;9.50;39.80;102905.81;5062728;28;45350;-66
2022/03/19 04:57:50;;;;;;;;;14.75;13.50;;;;;9.48;39.63;102907.50;5061267;28;45351;-66
2022/03/19 05:00:17;;;;;;;;;17.50;14.00;;;;;9.44;39.92;102910.03;5061119;28;45318;-65
2022/03/19 05:02:44;;;;;;;;;16.75;11.75;;;;;9.44;39.79;102912.66;5062355;28;46306;-66
2022/03/19 05:05:10;;;;;;;;;16.50;14.75;;;;;9.41;39.95;102911.72;5062227;28;45257;-66
2022/03/19 05:07:36;;;;;;;;;21.50;16.00;;;;;9.39;39.85;102903.78;5061031;28;45285;-66
2022/03/19 05:12:50;;;;;;;;;20.00;15.75;;;;;9.35;40.17;102903.69;5061792;28;45733;-66
2022/03/19 05:15:16;;;;;;;;;14.75;14.25;;;;;9.34;40.20;102901.91;5062162;28;45370;-67
2022/03/19 05:17:43;;;;;;;;;20.75;17.25;;;;;9.32;39.95;102914.09;5062258;28;45231;-67
2022/03/19 05:20:10;;;;;;;;;16.50;16.00;;;;;9.30;40.04;102911.44;5060603;28;45610;-68
2022/03/19 05:22:36;;;;;;;;;18.50;14.00;;;;;9.26;40.17;102913.09;5064092;28;46030;-67
2022/03/19 05:25:02;;;;;;;;;18.25;18.00;;;;;9.27;39.98;102914.00;5077368;27;45258;-67
2022/03/19 05:27:27;;;;;;;;;22.50;20.50;;;;;9.26;40.30;102917.47;5060832;28;45391;-66
2022/03/19 05:29:54;;;;;;;;;20.00;14.50;;;;;9.23;40.16;102913.03;5061994;28;45256;-66
2022/03/19 05:32:20;;;;;;;;;21.00;18.25;;;;;9.22;40.31;102913.88;5060573;28;47033;-68
2022/03/19 05:34:45;;;;;;;;;19.75;18.00;;;;;9.22;40.00;102910.34;5060461;28;45319;-66
2022/03/19 05:37:11;;;;;;;;;21.25;19.50;;;;;9.19;40.26;102905.03;5061933;28;45437;-66
2022/03/19 05:39:37;;;;;;;;;20.50;17.25;;;;;9.18;40.34;102913.75;5061775;28;45593;-66
2022/03/19 05:42:04;;;;;;;;;20.00;15.75;;;;;9.15;40.39;102911.94;5061918;28;45339;-66
2022/03/19 05:44:29;;;;;;;;;21.25;19.25;;;;;9.13;40.56;102904.88;5061983;28;45232;-66
2022/03/19 05:46:57;;;;;;;;;20.25;15.25;;;;;9.08;40.58;102900.41;5061795;28;45288;-67
2022/03/19 05:49:23;;;;;;;;;26.25;20.25;;;;;9.10;40.41;102914.41;5060361;28;45253;-67
2022/03/19 05:51:48;;;;;;;;;25.75;20.75;;;;;9.07;40.54;102910.84;5061556;28;46116;-67
2022/03/19 05:54:13;;;;;;;;;20.25;17.50;;;;;9.08;40.48;102907.34;5061729;28;45311;-68
2022/03/19 05:56:39;;;;;;;;;29.50;23.50;;;;;9.05;40.60;102908.16;5061693;28;45430;-66
2022/03/19 05:59:04;;;;;;;;;30.75;24.50;;;;;8.95;40.19;102893.03;5061873;28;45427;-67
2022/03/19 06:01:30;;;;;;;;;25.50;24.25;;;;;9.01;40.72;102905.44;5061422;28;45339;-67
2022/03/19 06:03:56;;;;;;;;;25.75;23.00;;;;;9.01;40.67;102900.19;5061493;28;45316;-67
2022/03/19 06:06:23;;;;;;;;;26.75;23.00;;;;;8.97;40.86;102896.59;5061574;28;45220;-67
2022/03/19 06:08:48;;;;;;;;;27.25;21.75;;;;;8.93;40.78;102892.09;5061691;28;45293;-67
2022/03/19 06:11:13;;;;;;;;;30.75;24.75;;;;;8.93;40.55;102908.72;5061198;28;46047;-67
2022/03/19 06:13:39;;;;;;;;;29.25;23.00;;;;;8.91;40.64;102906.91;5061592;28;45260;-67
2022/03/19 06:16:05;;;;;;;;;32.00;27.75;;;;;8.89;40.88;102913.84;5061568;28;45268;-67
2022/03/19 06:18:30;;;;;;;;;26.00;23.25;;;;;8.87;40.95;102910.31;5061088;28;45546;-68
2022/03/19 06:20:56;;;;;;;;;28.75;21.50;;;;;8.87;40.98;102905.94;5061212;28;45158;-67
2022/03/19 06:23:25;;;;;;;;;28.75;24.00;;;;;8.87;41.00;102913.81;5063782;28;45248;-67
2022/03/19 06:25:51;;;;;;;;;33.25;29.75;;;;;8.86;41.04;102919.03;5060851;28;45441;-68
2022/03/19 06:28:17;;;;;;;;;28.00;25.00;;;;;8.85;41.09;102920.72;5059372;28;45394;-67
2022/03/19 06:30:42;;;;;;;;;33.00;29.50;;;;;8.82;41.06;102911.88;5060391;28;46714;-68
2022/03/19 06:33:08;;;;;;;;;38.50;32.75;;;;;8.84;41.27;102918.97;5060399;28;45293;-68
2022/03/19 06:38:20;;;;;;;;;26.00;21.75;;;;;8.82;41.19;102915.41;5059531;28;45436;-66
2022/03/19 06:40:46;;;;;;;;;31.75;29.25;;;;;8.80;41.36;102913.59;5060818;28;46449;-66
2022/03/19 06:43:11;;;;;;;;;31.75;29.00;;;;;8.81;41.50;102912.75;5060985;28;45257;-66
2022/03/19 06:45:37;;;;;;;;;39.25;34.25;;;;;8.82;41.53;102920.66;5077202;27;45340;-68
2022/03/19 06:48:03;;;;;;;;;36.75;31.25;;;;;8.81;41.26;102918.88;5060684;28;45352;-66
2022/03/19 06:50:28;;;;;;;;;35.75;31.75;;;;;8.81;41.26;102912.75;5060581;28;45633;-67
2022/03/19 06:52:54;;;;;;;;;39.00;32.50;;;;;8.80;41.37;102919.72;5060918;28;45259;-68
2022/03/19 06:55:19;;;;;;;;;41.75;33.75;;;;;8.82;41.59;102927.63;5061235;28;45241;-66
2022/03/19 06:57:45;;;;;;;;;37.50;33.00;;;;;8.81;41.51;102921.50;5060832;28;45276;-68
2022/03/19 07:00:11;;;;;;;;;37.00;33.25;;;;;8.82;41.40;102912.78;5060750;28;45571;-68
2022/03/19 07:02:50;;;;;;;;;34.50;28.75;;;;;8.82;41.76;102912.78;5060228;28;45312;-66
2022/03/19 07:05:26;;;;;;;;;39.25;30.75;;;;;8.82;41.73;102912.78;5060549;28;45268;-66
2022/03/19 07:07:53;;;;;;;;;39.75;34.50;;;;;8.82;41.57;102914.50;5060481;28;45378;-66
2022/03/19 07:10:19;;;;;;;;;49.75;37.00;;;;;8.84;41.56;102915.44;5060147;28;45389;-67
2022/03/19 07:12:55;;;;;;;;;42.75;34.25;;;;;8.86;41.91;102919.88;5059013;28;45368;-66
2022/03/19 07:15:29;;;;;;;;;38.00;30.50;;;;;8.87;41.97;102910.31;5060834;28;45375;-66
2022/03/19 07:17:56;;;;;;;;;51.50;36.75;;;;;8.89;41.86;102919.09;5060341;28;45265;-68
2022/03/19 07:20:22;;;;;;;;;39.75;34.75;;;;;8.89;41.88;102908.59;5060330;28;46984;-67
2022/03/19 07:22:57;;;;;;;;;48.50;37.00;;;;;8.93;41.94;102907.81;5064053;28;45339;-68
2022/03/19 07:25:25;;;;;;;;;48.50;36.75;;;;;8.96;42.12;102914.91;5058692;28;45300;-65
2022/03/19 07:27:53;;;;;;;;;46.00;37.75;;;;;8.98;41.98;102919.34;5059230;28;45529;-66
2022/03/19 07:30:19;;;;;;;;;50.75;39.00;;;;;8.98;42.19;102906.25;5060169;28;45470;-66
2022/03/19 07:32:44;;;;;;;;;43.25;35.25;;;;;9.03;41.90;102908.97;5060135;28;45446;-66
2022/03/19 07:35:10;;;;;;;;;44.50;36.50;;;;;9.05;42.30;102908.16;5059893;28;45768;-67
2022/03/19 07:37:37;;;;;;;;;50.75;39.00;;;;;9.08;42.40;102910.88;5060218;28;45451;-67
2022/03/19 07:40:04;;;;;;;;;50.75;42.00;;;;;9.11;42.10;102910.94;5059451;28;46305;-68
2022/03/19 07:42:30;;;;;;;;;55.75;40.75;;;;;9.16;42.22;102916.34;5058204;28;45312;-67
2022/03/19 07:44:55;;;;;;;;;48.75;40.00;;;;;9.21;42.19;102919.97;5058592;28;45330;-62
2022/03/19 07:47:20;;;;;;;;;52.00;40.50;;;;;9.26;42.18;102914.84;5060243;28;45454;-66
2022/03/19 07:49:46;;;;;;;;;57.25;42.75;;;;;9.32;42.65;102901.88;5059268;28;46004;-67
2022/03/19 07:52:11;;;;;;;;;58.00;44.25;;;;;9.35;42.52;102907.19;5059773;28;45350;-67
2022/03/19 07:54:37;;;;;;;;;57.00;45.75;;;;;9.41;42.34;102903.84;5058247;28;45350;-68
2022/03/19 07:57:04;;;;;;;;;57.75;44.50;;;;;9.47;42.26;102901.38;5058779;28;45638;-67
2022/03/19 07:59:30;;;;;;;;;60.75;47.25;;;;;9.54;42.52;102902.41;5058864;28;46173;-68
2022/03/19 08:01:56;;;;;;;;;63.50;47.75;;;;;9.60;42.50;102907.81;5058949;28;45474;-66
2022/03/19 08:04:22;;;;;;;;;64.50;49.25;;;;;9.67;42.75;102906.22;5057799;28;45438;-66
2022/03/19 08:06:53;;;;;;;;;62.50;48.50;;;;;9.73;42.68;102896.75;5059630;28;45239;-65
2022/03/19 08:09:18;;;;;;;;;56.50;44.00;;;;;9.80;42.84;102899.50;5059060;28;46234;-61
2022/03/19 08:11:44;;;;;;;;;58.00;46.50;;;;;9.87;42.62;102901.44;5059581;28;45267;-67
2022/03/19 08:14:09;;;;;;;;;67.25;50.50;;;;;9.92;42.94;102898.09;5060661;28;45786;-66
2022/03/19 08:16:35;;;;;;;;;68.50;52.50;;;;;10.00;42.88;102895.63;5062639;28;45353;-60
2022/03/19 08:19:00;;;;;;;;;61.00;48.00;;;;;10.06;43.10;102897.47;5062759;28;45469;-64
2022/03/19 08:21:26;;;;;;;;;64.25;49.25;;;;;10.15;43.09;102896.81;5062024;28;45525;-61
2022/03/19 08:23:52;;;;;;;;;62.00;48.75;;;;;10.22;43.05;102893.47;5067596;28;45327;-61
2022/03/19 08:26:18;;;;;;;;;56.75;45.50;;;;;10.31;42.92;102903.28;5095726;27;45511;-61
2022/03/19 08:28:43;;;;;;;;;65.50;50.00;;;;;10.38;43.05;102890.34;5062742;28;45529;-60
2022/03/19 08:31:08;;;;;;;;;62.25;50.50;;;;;10.45;43.23;102886.09;5062888;28;45323;-61
2022/03/19 08:33:34;;;;;;;;;66.00;50.75;;;;;10.56;43.04;102888.94;5062522;28;45460;-60
2022/03/19 08:35:59;;;;;;;;;58.00;48.00;;;;;10.65;43.40;102881.22;5062925;28;45355;-66
2022/03/19 08:41:08;;;;;;;;;66.25;49.75;;;;;10.84;43.40;102878.97;5062178;28;45303;-67
2022/03/19 08:43:34;;;;;;;;;62.75;48.50;;;;;10.94;43.09;102870.38;5062620;28;45240;-66
2022/03/19 08:45:59;;;;;;;;;66.00;50.25;;;;;11.00;43.31;102881.00;5062851;28;45312;-65
2022/03/19 08:48:24;;;;;;;;;61.75;48.00;;;;;11.06;43.40;102875.84;5062085;28;45334;-68
2022/03/19 08:50:50;;;;;;;;;61.75;48.50;;;;;11.19;43.34;102891.88;5062380;28;45356;-64
2022/03/19 08:53:16;;;;;;;;;63.50;48.75;;;;;11.26;43.37;102888.50;5061283;28;45269;-63
2022/03/19 08:55:41;;;;;;;;;64.50;47.75;;;;;11.34;43.50;102871.06;5062734;28;45319;-66
2022/03/19 08:58:07;;;;;;;;;64.00;48.25;;;;;11.46;43.43;102869.50;5062359;28;45311;-66
2022/03/19 09:00:33;;;;;;;;;66.00;52.00;;;;;11.53;43.36;102871.38;5062794;28;45280;-61
2022/03/19 09:02:58;;;;;;;;;59.75;47.50;;;;;11.65;43.41;102870.69;5062106;28;45290;-62
2022/03/19 09:05:23;;;;;;;;;62.25;48.50;;;;;11.73;43.27;102876.94;5062193;28;45577;-62
2022/03/19 09:07:50;;;;;;;;;63.75;50.25;;;;;11.85;43.39;102878.91;5062107;28;46716;-62
2022/03/19 09:10:15;;;;;;;;;62.25;48.00;;;;;11.93;43.30;102877.25;5062160;28;45247;-62
2022/03/19 09:12:41;;;;;;;;;64.50;50.25;;;;;11.99;43.18;102877.34;5061019;28;45658;-61
2022/03/19 09:15:11;;;;;;;;;64.75;50.00;;;;;12.11;43.30;102878.38;5062465;28;45473;-62
2022/03/19 09:17:36;;;;;;;;;59.25;46.50;;;;;12.20;43.21;102875.91;5062116;28;46316;-61
2022/03/19 09:20:02;;;;;;;;;63.25;49.75;;;;;12.29;43.30;102880.38;5062094;28;45165;-61
2022/03/19 09:22:29;;;;;;;;;62.00;48.25;;;;;12.40;43.14;102869.97;5065279;28;45317;-61
2022/03/19 09:24:55;;;;;;;;;62.25;48.00;;;;;12.51;43.13;102863.06;5061844;28;45244;-62
2022/03/19 09:27:20;;;;;;;;;59.75;46.00;;;;;12.61;43.24;102867.56;5061829;28;46290;-61
2022/03/19 09:29:45;;;;;;;;;63.50;49.00;;;;;12.69;42.99;102865.03;5061841;28;45356;-58
2022/03/19 09:32:12;;;;;;;;;57.50;45.25;;;;;12.81;42.97;102859.00;5062065;28;45280;-59
2022/03/19 09:34:37;;;;;;;;;58.00;47.00;;;;;12.90;42.77;102858.22;5061495;28;45346;-59
2022/03/19 09:37:03;;;;;;;;;59.75;45.50;;;;;12.96;42.95;102851.22;5061908;28;46118;-59
2022/03/19 09:39:28;;;;;;;;;61.25;47.75;;;;;13.09;42.92;102857.50;5060543;28;45358;-58
2022/03/19 09:41:55;;;;;;;;;60.50;47.50;;;;;13.19;42.86;102850.56;5060726;28;45189;-60
2022/03/19 09:44:25;;;;;;;;;60.25;48.75;;;;;13.27;42.65;102856.78;5061991;28;45526;-57
2022/03/19 09:46:51;;;;;;;;;58.00;46.50;;;;;13.36;42.66;102850.69;5061664;28;46440;-56
2022/03/19 09:49:16;;;;;;;;;57.75;45.75;;;;;13.49;42.62;102851.69;5060148;28;45350;-55
2022/03/19 09:51:51;;;;;;;;;60.00;46.75;;;;;13.58;42.71;102859.69;5061737;28;45292;-56
2022/03/19 09:54:17;;;;;;;;;53.00;43.00;;;;;13.72;42.53;102856.25;5060843;28;45464;-59
2022/03/19 09:56:42;;;;;;;;;59.00;46.75;;;;;13.83;42.62;102851.91;5059976;28;48134;-58
2022/03/19 09:59:08;;;;;;;;;59.75;46.50;;;;;13.93;42.31;102851.09;5077208;27;45379;-58
2022/03/19 10:01:37;;;;;;;;;58.00;47.00;;;;;14.03;42.41;102843.22;5061691;28;45510;-59
2022/03/19 10:04:04;;;;;;;;;63.00;49.50;;;;;14.17;42.08;102844.16;5060928;28;45423;-54
2022/03/19 10:09:18;;;;;;;;;57.50;46.50;;;;;14.44;42.51;102837.22;5060983;28;45433;-58
2022/03/19 10:11:47;;;;;;;;;57.25;44.75;;;;;14.56;42.01;102833.72;5061653;28;45331;-57
2022/03/19 10:14:20;;;;;;;;;57.75;46.75;;;;;14.67;42.19;102833.78;5059716;28;46407;-58
2022/03/19 10:16:48;;;;;;;;;57.25;46.75;;;;;14.79;42.34;102833.78;5059919;28;46140;-58
2022/03/19 10:19:14;;;;;;;;;58.00;47.00;;;;;14.93;42.09;102826.75;5061019;28;45489;-58
2022/03/19 10:21:41;;;;;;;;;62.50;47.00;;;;;15.06;42.20;102824.09;5061847;28;45361;-53
2022/03/19 10:24:08;;;;;;;;;60.25;47.25;;;;;15.20;41.74;102817.03;5063475;28;45293;-55
2022/03/19 10:26:37;;;;;;;;;56.75;46.00;;;;;15.32;42.13;102817.91;5061323;28;46177;-52
2022/03/19 10:29:11;;;;;;;;;45.50;39.00;;;;;15.46;41.69;102815.22;5059679;28;45443;-58
2022/03/19 10:31:38;;;;;;;;;64.25;50.00;;;;;15.56;41.99;102809.94;5061252;28;45284;-60
2022/03/19 10:34:05;;;;;;;;;55.25;45.25;;;;;15.70;41.96;102807.25;5059120;28;45310;-58
2022/03/19 10:36:35;;;;;;;;;60.50;49.00;;;;;15.84;41.72;102815.19;5059889;28;47181;-56
2022/03/19 10:39:13;;;;;;;;;56.00;46.25;;;;;15.98;41.68;102804.53;5060657;28;45232;-59
2022/03/19 10:41:39;;;;;;;;;59.25;46.25;;;;;16.13;41.73;102813.31;5059528;28;45427;-59
2022/03/19 10:44:16;;;;;;;;;53.75;42.50;;;;;16.26;41.52;102807.03;5061047;28;45326;-57
2022/03/19 10:46:53;;;;;;;;;58.00;46.75;;;;;16.40;41.30;102802.56;5059473;28;47244;-58
2022/03/19 10:49:23;;;;;;;;;60.75;47.50;;;;;16.52;41.40;102790.97;5059261;28;45546;-56
2022/03/19 10:51:54;;;;;;;;;59.50;48.25;;;;;16.69;41.36;102800.59;5060439;28;45331;-58
2022/03/19 10:54:19;;;;;;;;;58.25;45.75;;;;;16.83;41.28;102792.50;5060529;28;45335;-58
2022/03/19 10:56:46;;;;;;;;;;;;;;;16.98;41.28;102779.16;5062656;28;45391;-59
2022/03/19 10:59:11;;;;;;;;;52.25;42.25;;;;;17.09;41.36;102778.19;5059283;28;45330;-59
2022/03/19 11:01:37;;;;;;;;;53.50;42.75;;;;;17.25;40.98;102778.94;5059278;28;45700;-59
2022/03/19 11:04:06;;;;;;;;;55.00;43.00;;;;;17.41;40.88;102783.19;5059870;28;45506;-59
2022/03/19 11:06:35;;;;;;;;;53.25;42.75;;;;;17.58;40.76;102784.78;5058899;28;47182;-57
2022/03/19 11:09:06;;;;;;;;;55.00;43.75;;;;;17.72;41.41;102774.84;5058983;28;45898;-56
2022/03/19 11:11:40;;;;;;;;;52.75;43.25;;;;;17.91;40.64;102769.31;5060594;28;45349;-65
2022/03/19 11:14:07;;;;;;;;;57.25;44.25;;;;;18.09;40.79;102766.44;5058853;28;45556;-63
2022/03/19 11:16:36;;;;;;;;;55.75;43.25;;;;;18.33;40.57;102774.97;5060372;28;46140;-70
2022/03/19 11:19:02;;;;;;;;;51.00;42.25;;;;;18.52;40.86;102765.81;5060054;28;45343;-70
2022/03/19 11:21:31;;;;;;;;;53.00;44.50;;;;;18.77;40.64;102762.75;5060428;28;45264;-65
2022/03/19 11:24:20;;;;;;;;;51.00;41.75;;;;;19.03;40.50;102756.16;5063903;28;45465;-63
2022/03/19 11:26:47;;;;;;;;;49.25;40.50;;;;;19.37;41.04;102759.94;5059772;28;45425;-76
2022/03/19 11:29:12;;;;;;;;;49.00;39.50;;;;;19.69;41.28;102758.44;5059954;28;45307;-61
2022/03/19 11:31:38;;;;;;;;;49.25;41.75;;;;;20.01;41.30;102755.09;5060169;28;45319;-59